sensor_id;sensor_type;location;lat;lon;timestamp;P1;durP1;ratioP1;P2;durP2;ratioP2
13014;SDS011;6573;57.696;11.950;2024-02-14T00:03:30;42.93;;;8.37;;
13014;SDS011;6573;57.696;11.950;2024-02-14T00:07:22;29.40;;;6.90;;
13014;SDS011;6573;57.696;11.950;2024-02-14T00:13:23;26.20;;;7.07;;
13014;SDS011;6573;57.696;11.950;2024-02-14T00:15:56;30.20;;;7.30;;
13014;SDS011;6573;57.696;11.950;2024-02-14T00:19:10;30.40;;;6.10;;
13014;SDS011;6573;57.696;11.950;2024-02-14T00:25:28;27.83;;;6.37;;
13014;SDS011;6573;57.696;11.950;2024-02-14T00:27:58;34.80;;;6.70;;
13014;SDS011;6573;57.696;11.950;2024-02-14T00:30:33;27.63;;;6.00;;
13014;SDS011;6573;57.696;11.950;2024-02-14T00:33:08;33.43;;;5.80;;
13014;SDS011;6573;57.696;11.950;2024-02-14T00:35:42;32.23;;;6.43;;
13014;SDS011;6573;57.696;11.950;2024-02-14T00:50:05;30.77;;;5.97;;
13014;SDS011;6573;57.696;11.950;2024-02-14T00:53:31;31.83;;;6.20;;
13014;SDS011;6573;57.696;11.950;2024-02-14T00:56:35;31.10;;;6.00;;
13014;SDS011;6573;57.696;11.950;2024-02-14T01:03:14;30.23;;;7.17;;
13014;SDS011;6573;57.696;11.950;2024-02-14T01:18:49;31.10;;;7.30;;
13014;SDS011;6573;57.696;11.950;2024-02-14T01:21:40;28.07;;;7.10;;
13014;SDS011;6573;57.696;11.950;2024-02-14T01:25:08;28.40;;;7.80;;
13014;SDS011;6573;57.696;11.950;2024-02-14T01:28:07;32.13;;;7.53;;
13014;SDS011;6573;57.696;11.950;2024-02-14T01:31:01;25.67;;;8.10;;
13014;SDS011;6573;57.696;11.950;2024-02-14T01:34:41;30.70;;;8.73;;
13014;SDS011;6573;57.696;11.950;2024-02-14T01:38:05;27.67;;;8.13;;
13014;SDS011;6573;57.696;11.950;2024-02-14T01:41:19;28.50;;;8.50;;
13014;SDS011;6573;57.696;11.950;2024-02-14T01:44:16;35.67;;;7.83;;
13014;SDS011;6573;57.696;11.950;2024-02-14T01:47:02;25.83;;;7.33;;
13014;SDS011;6573;57.696;11.950;2024-02-14T01:49:40;24.90;;;6.80;;
13014;SDS011;6573;57.696;11.950;2024-02-14T01:55:45;27.23;;;7.53;;
13014;SDS011;6573;57.696;11.950;2024-02-14T01:58:51;29.27;;;8.53;;
13014;SDS011;6573;57.696;11.950;2024-02-14T02:01:30;28.00;;;9.20;;
13014;SDS011;6573;57.696;11.950;2024-02-14T02:04:02;24.97;;;8.47;;
13014;SDS011;6573;57.696;11.950;2024-02-14T02:06:41;26.17;;;8.87;;
13014;SDS011;6573;57.696;11.950;2024-02-14T02:09:51;24.80;;;7.97;;
13014;SDS011;6573;57.696;11.950;2024-02-14T02:12:48;26.97;;;7.97;;
13014;SDS011;6573;57.696;11.950;2024-02-14T02:15:55;25.13;;;7.57;;
13014;SDS011;6573;57.696;11.950;2024-02-14T02:18:49;26.23;;;7.80;;
13014;SDS011;6573;57.696;11.950;2024-02-14T02:21:38;25.77;;;8.47;;
13014;SDS011;6573;57.696;11.950;2024-02-14T02:24:55;27.00;;;7.83;;
13014;SDS011;6573;57.696;11.950;2024-02-14T02:27:44;27.93;;;7.30;;
13014;SDS011;6573;57.696;11.950;2024-02-14T02:30:46;29.43;;;7.87;;
13014;SDS011;6573;57.696;11.950;2024-02-14T02:33:16;22.67;;;7.50;;
13014;SDS011;6573;57.696;11.950;2024-02-14T02:35:45;21.00;;;6.20;;
13014;SDS011;6573;57.696;11.950;2024-02-14T02:38:23;23.33;;;6.83;;
13014;SDS011;6573;57.696;11.950;2024-02-14T02:41:09;24.17;;;6.80;;
13014;SDS011;6573;57.696;11.950;2024-02-14T02:44:18;20.87;;;6.67;;
13014;SDS011;6573;57.696;11.950;2024-02-14T02:47:30;25.33;;;6.30;;
13014;SDS011;6573;57.696;11.950;2024-02-14T02:50:36;25.83;;;6.67;;
13014;SDS011;6573;57.696;11.950;2024-02-14T02:53:22;25.47;;;6.17;;
13014;SDS011;6573;57.696;11.950;2024-02-14T02:55:59;24.77;;;6.47;;
13014;SDS011;6573;57.696;11.950;2024-02-14T02:58:59;24.00;;;5.97;;
13014;SDS011;6573;57.696;11.950;2024-02-14T03:01:51;20.47;;;5.50;;
13014;SDS011;6573;57.696;11.950;2024-02-14T03:04:50;24.00;;;5.30;;
13014;SDS011;6573;57.696;11.950;2024-02-14T03:07:38;19.53;;;5.37;;
13014;SDS011;6573;57.696;11.950;2024-02-14T03:14:14;22.27;;;5.93;;
13014;SDS011;6573;57.696;11.950;2024-02-14T03:25:03;25.97;;;5.10;;
13014;SDS011;6573;57.696;11.950;2024-02-14T03:28:04;21.00;;;5.00;;
13014;SDS011;6573;57.696;11.950;2024-02-14T03:31:24;20.60;;;5.43;;
13014;SDS011;6573;57.696;11.950;2024-02-14T03:34:33;23.30;;;5.43;;
13014;SDS011;6573;57.696;11.950;2024-02-14T03:37:59;23.67;;;5.07;;
13014;SDS011;6573;57.696;11.950;2024-02-14T03:41:19;22.50;;;5.70;;
13014;SDS011;6573;57.696;11.950;2024-02-14T03:44:35;21.50;;;6.60;;
13014;SDS011;6573;57.696;11.950;2024-02-14T03:47:21;24.97;;;6.73;;
13014;SDS011;6573;57.696;11.950;2024-02-14T03:50:09;23.17;;;6.67;;
13014;SDS011;6573;57.696;11.950;2024-02-14T03:52:57;20.60;;;5.60;;
13014;SDS011;6573;57.696;11.950;2024-02-14T03:55:27;21.70;;;5.40;;
13014;SDS011;6573;57.696;11.950;2024-02-14T03:57:58;24.07;;;4.73;;
13014;SDS011;6573;57.696;11.950;2024-02-14T04:04:47;25.40;;;5.23;;
13014;SDS011;6573;57.696;11.950;2024-02-14T04:07:18;22.00;;;4.90;;
13014;SDS011;6573;57.696;11.950;2024-02-14T04:09:48;19.43;;;4.77;;
13014;SDS011;6573;57.696;11.950;2024-02-14T04:12:22;21.07;;;4.80;;
13014;SDS011;6573;57.696;11.950;2024-02-14T04:15:00;21.53;;;4.63;;
13014;SDS011;6573;57.696;11.950;2024-02-14T04:18:49;19.57;;;4.57;;
13014;SDS011;6573;57.696;11.950;2024-02-14T04:32:38;20.33;;;4.80;;
13014;SDS011;6573;57.696;11.950;2024-02-14T04:35:21;18.33;;;4.90;;
13014;SDS011;6573;57.696;11.950;2024-02-14T04:38:11;23.27;;;5.17;;
13014;SDS011;6573;57.696;11.950;2024-02-14T04:41:06;20.87;;;5.20;;
13014;SDS011;6573;57.696;11.950;2024-02-14T04:43:43;21.23;;;5.23;;
13014;SDS011;6573;57.696;11.950;2024-02-14T04:46:26;17.87;;;4.43;;
13014;SDS011;6573;57.696;11.950;2024-02-14T04:49:10;19.67;;;5.30;;
13014;SDS011;6573;57.696;11.950;2024-02-14T04:51:42;20.57;;;4.73;;
13014;SDS011;6573;57.696;11.950;2024-02-14T04:54:25;22.00;;;5.80;;
13014;SDS011;6573;57.696;11.950;2024-02-14T04:57:06;19.70;;;4.90;;
13014;SDS011;6573;57.696;11.950;2024-02-14T05:00:06;18.97;;;5.07;;
13014;SDS011;6573;57.696;11.950;2024-02-14T05:03:04;21.87;;;5.60;;
13014;SDS011;6573;57.696;11.950;2024-02-14T05:06:09;20.70;;;4.93;;
13014;SDS011;6573;57.696;11.950;2024-02-14T05:08:57;20.23;;;4.97;;
13014;SDS011;6573;57.696;11.950;2024-02-14T05:12:02;20.97;;;5.03;;
13014;SDS011;6573;57.696;11.950;2024-02-14T05:14:39;23.77;;;5.37;;
